Terminal Aerodrome Forecast
Issued by NWS North Platte, NE

Home | Current Version | Previous Version | Text Only | Print | Product List | Glossary On
Versions: 1 2 3 4 5 6 7 8 9 10 11 12 13 14 15 16 17 18 19 20
000
FTUS43 KLBF 181720
TAFVTN
TAF
KVTN 181720Z 1818/1918 32011KT P6SM SKC
     FM190000 36007KT P6SM SKC
     FM190200 VRB05KT P6SM SKC
     FM191400 18008KT P6SM FEW250=

USA.gov is the U.S. government's official web portal to all federal, state and local government web resources and services.